Lucerne, CA (95458)

2:12 PM PDT on April 24, 2017 (GMT -0700)
Lucerne | | Change Station

Elev 1360 ft 39.09 °N, 122.79 °W | Updated 25 seconds ago

Mostly Cloudy
Mostly Cloudy
57.6 °F
Feels Like 57.6 °F
N
4.0
Wind Variable Wind from ESE
Gusts 4.9 mph

Today
High -- | Low -- °F
--% Chance of Precip.
Yesterday
High -- | Low -- °F
Precip. -- in
Pressure 30.01 in
Visibility 10.0 miles
Clouds Scattered Clouds 3000 ft
Scattered Clouds 3700 ft
Mostly Cloudy 4500 ft
Dew Point 49 °F
Humidity 72%
Rainfall 0.05 in
Snow Depth Not available.
6:21 AM 7:57 PM
Waning Crescent, 4% visible
METAR KUKI 242056Z AUTO 33008KT 10SM SCT030 SCT037 BKN045 16/10 A3002 RMK AO2 RAE1957B46E55 SLP162 P0000 60001 T01610100 58004
Pressure 30.01 in
Visibility 10.0 miles
Clouds Scattered Clouds 3000 ft
Scattered Clouds 3700 ft
Mostly Cloudy 4500 ft
Dew Point 49 °F
Humidity 72%
Rainfall 0.05 in
Snow Depth Not available.
6:21 AM 7:57 PM
Waning Crescent, 4% visible
METAR KUKI 242056Z AUTO 33008KT 10SM SCT030 SCT037 BKN045 16/10 A3002 RMK AO2 RAE1957B46E55 SLP162 P0000 60001 T01610100 58004

Get Severe Weather Alerts

Thanks for signing up!

Be on the lookout for a verification email in your inbox.

You'll start receiving the daily forecast at 8 AM.

×

10-Day Weather Forecast

Almanac

Astronomy

Apr. 24, 2017 Rise Set
Actual Time
Civil Twilight
Nautical Twilight
Astronomical Twilight
Moon
Length of Visible Light
Length of Day
Tomorrow will be .
, % of the Moon is Illuminated

Today's Extremes

State Highs State Lows

Community

WunderPhotos

WunderBlog® & News

Nearby

Air Quality

  Air Quality AQ Index Pollutant
Not available.

Snow Depth

Station Depth Elevation

Earthquake Activity

City Distance Mag. Time & Date
Minimum magnitude displayed is 2.5.

Coastal Water Temperatures

Place Temperature

Stations

Nearby Weather Stations

Station Location Temp. Windchill Dew Point Humidity Wind Precip. Elev Updated Type
                   

Watches & Warnings

There are currently no watches in effect.